createdAt,value
2022-12-11T00:05:29.012Z,3.47
2022-12-11T00:22:04.431Z,2.42
2022-12-11T00:27:27.757Z,1.88
2022-12-11T00:39:03.788Z,1.80
2022-12-11T00:44:09.848Z,1.65
2022-12-11T00:49:50.048Z,1.60
2022-12-11T00:55:23.371Z,1.75
2022-12-11T01:00:31.527Z,1.52
2022-12-11T01:05:37.309Z,1.27
2022-12-11T01:10:45.157Z,1.45
2022-12-11T01:15:50.322Z,1.48
2022-12-11T01:20:55.722Z,1.10
2022-12-11T01:26:08.132Z,1.20
2022-12-11T01:31:18.686Z,0.93
2022-12-11T01:36:25.077Z,0.55
2022-12-11T01:41:33.133Z,0.80
2022-12-11T01:46:39.887Z,1.08
2022-12-11T01:51:47.382Z,0.73
2022-12-11T01:56:56.828Z,0.57
2022-12-11T02:02:06.236Z,0.80
2022-12-11T02:07:18.720Z,0.52
2022-12-11T02:12:29.966Z,0.40
2022-12-11T02:17:40.129Z,0.50
2022-12-11T02:23:09.478Z,1.83
2022-12-11T02:28:25.434Z,2.05
2022-12-11T02:33:37.459Z,1.85
2022-12-11T02:38:51.393Z,1.73
2022-12-11T02:44:17.591Z,1.55
2022-12-11T02:49:33.706Z,1.73
2022-12-11T02:54:43.163Z,2.33
2022-12-11T02:59:52.505Z,2.30
2022-12-11T03:04:58.092Z,2.40
2022-12-11T03:10:14.182Z,2.78
2022-12-11T03:15:25.466Z,3.95
2022-12-11T03:20:39.426Z,3.08
2022-12-11T03:26:07.428Z,3.28
2022-12-11T03:31:20.155Z,3.60
2022-12-11T03:36:32.778Z,2.80
2022-12-11T03:41:39.698Z,3.45
2022-12-11T03:46:50.586Z,3.58
2022-12-11T03:52:00.665Z,3.75
2022-12-11T03:57:07.768Z,3.72
2022-12-11T04:02:19.790Z,3.22
2022-12-11T04:07:28.927Z,3.55
2022-12-11T04:12:34.257Z,3.95
2022-12-11T04:17:55.889Z,2.63
2022-12-11T04:23:13.594Z,3.67
2022-12-11T04:28:23.332Z,4.40
2022-12-11T04:33:39.572Z,4.25
2022-12-11T04:38:47.076Z,3.67
2022-12-11T04:43:52.378Z,4.20
2022-12-11T04:49:07.350Z,4.28
2022-12-11T04:59:18.192Z,3.53
2022-12-11T05:04:29.098Z,3.50
2022-12-11T05:09:34.532Z,4.05
2022-12-11T05:14:39.879Z,2.90
2022-12-11T05:19:50.312Z,3.42
2022-12-11T05:24:55.682Z,3.45
2022-12-11T05:30:01.076Z,3.38
2022-12-11T05:35:13.403Z,3.63
2022-12-11T05:40:18.941Z,3.70
2022-12-11T05:45:24.283Z,3.17
2022-12-11T05:50:33.323Z,4.18
2022-12-11T05:55:38.853Z,3.50
2022-12-11T06:00:44.968Z,3.95
2022-12-11T06:05:55.096Z,4.97
2022-12-11T06:11:00.392Z,4.07
2022-12-11T06:16:06.948Z,5.13
2022-12-11T06:21:20.064Z,4.72
2022-12-11T06:26:25.493Z,5.25
2022-12-11T06:31:31.067Z,5.65
2022-12-11T06:36:39.068Z,5.78
2022-12-11T06:41:44.579Z,5.68
2022-12-11T06:46:52.232Z,5.57
2022-12-11T06:52:00.110Z,5.88
2022-12-11T06:57:11.654Z,6.68
2022-12-11T07:02:18.428Z,4.25
2022-12-11T07:07:26.419Z,5.88
2022-12-11T07:12:31.675Z,6.90
2022-12-11T07:17:36.995Z,6.43
2022-12-11T07:22:46.877Z,5.30
2022-12-11T07:27:52.244Z,6.53
2022-12-11T07:33:05.752Z,7.85
2022-12-11T07:38:15.325Z,5.72
2022-12-11T07:43:25.531Z,6.18
2022-12-11T07:48:39.330Z,6.03
2022-12-11T07:53:48.503Z,6.20
2022-12-11T07:58:54.047Z,5.75
2022-12-11T08:04:03.192Z,6.40
2022-12-11T08:09:18.922Z,6.80
2022-12-11T08:14:36.225Z,6.85
2022-12-11T08:19:41.788Z,4.68
2022-12-11T08:31:14.616Z,5.93
2022-12-11T08:37:49.093Z,6.70
2022-12-11T08:42:59.044Z,6.65
2022-12-11T09:00:02.341Z,7.05
2022-12-11T09:10:36.559Z,8.57
2022-12-11T09:15:51.939Z,7.50
2022-12-11T09:21:17.436Z,7.05
2022-12-11T09:26:25.043Z,7.25
2022-12-11T09:31:35.250Z,6.65
2022-12-11T09:36:42.416Z,8.50
2022-12-11T09:41:56.252Z,9.75
2022-12-11T09:47:06.307Z,7.05
2022-12-11T09:52:42.594Z,7.97
2022-12-11T10:04:46.857Z,10.13
2022-12-11T10:10:51.914Z,9.00
2022-12-11T10:15:59.552Z,9.27
2022-12-11T10:21:08.399Z,8.38
2022-12-11T10:26:16.833Z,6.28
2022-12-11T10:31:24.767Z,7.75
2022-12-11T10:36:35.146Z,7.55
2022-12-11T10:41:42.713Z,9.05
2022-12-11T10:46:49.039Z,8.73
2022-12-11T10:51:58.666Z,8.13
2022-12-11T10:57:07.482Z,7.25
2022-12-11T11:02:24.742Z,8.05
2022-12-11T11:07:35.534Z,8.68
2022-12-11T11:12:43.631Z,7.78
2022-12-11T11:17:56.254Z,7.13
2022-12-11T11:23:13.066Z,8.10
2022-12-11T11:28:26.692Z,8.00
2022-12-11T11:33:38.804Z,9.13
2022-12-11T11:38:52.701Z,10.50
2022-12-11T11:44:01.263Z,7.88
2022-12-11T11:49:12.671Z,9.23
2022-12-11T11:54:27.059Z,8.75
2022-12-11T11:59:36.092Z,7.85
2022-12-11T12:04:43.963Z,11.68
2022-12-11T12:09:58.112Z,10.50
2022-12-11T12:15:14.250Z,10.25
2022-12-11T12:20:23.752Z,9.73
2022-12-11T12:25:37.576Z,12.60
2022-12-11T12:30:51.214Z,12.57
2022-12-11T12:36:06.889Z,10.10
2022-12-11T12:41:20.643Z,11.18
2022-12-11T12:46:38.929Z,10.88
2022-12-11T12:51:45.663Z,9.25
2022-12-11T12:56:54.214Z,10.30
2022-12-11T13:02:01.963Z,10.48
2022-12-11T13:07:24.882Z,7.30
2022-12-11T13:12:48.851Z,10.40
2022-12-11T13:17:55.046Z,8.40
2022-12-11T13:23:20.839Z,6.88
2022-12-11T13:28:35.693Z,8.38
2022-12-11T13:39:02.068Z,8.57
2022-12-11T13:44:12.690Z,8.45
2022-12-11T13:49:29.553Z,8.32
2022-12-11T13:54:41.656Z,9.23
2022-12-11T13:59:54.004Z,9.73
2022-12-11T14:05:09.629Z,8.48
2022-12-11T14:10:26.361Z,8.38
2022-12-11T14:15:38.063Z,7.53
2022-12-11T14:20:44.619Z,7.93
2022-12-11T14:25:57.715Z,7.95
2022-12-11T14:31:07.070Z,8.65
2022-12-11T14:36:13.872Z,9.88
2022-12-11T14:41:24.237Z,10.30
2022-12-11T14:46:36.865Z,10.68
2022-12-11T14:51:45.292Z,8.95
2022-12-11T14:56:51.751Z,10.23
2022-12-11T15:02:21.818Z,9.38
2022-12-11T15:07:35.002Z,10.05
2022-12-11T15:12:50.187Z,9.52
2022-12-11T15:18:01.468Z,9.50
2022-12-11T15:23:49.127Z,8.68
2022-12-11T15:56:20.939Z,8.90
2022-12-11T16:30:30.619Z,8.48
2022-12-11T17:04:03.307Z,7.32
2022-12-11T18:33:49.803Z,8.32
2022-12-11T18:39:15.553Z,8.13
2022-12-11T18:44:39.835Z,7.22
2022-12-11T18:50:07.941Z,7.32
2022-12-11T19:00:56.033Z,6.03
2022-12-11T19:06:10.715Z,7.65
2022-12-11T19:17:52.300Z,6.18
2022-12-11T19:52:33.443Z,7.15
2022-12-11T19:58:49.444Z,7.82
2022-12-11T21:10:20.758Z,7.07
2022-12-11T21:26:11.630Z,7.85
2022-12-11T21:37:18.774Z,9.27
2022-12-11T21:42:30.116Z,11.13
2022-12-11T21:47:50.173Z,9.98
2022-12-11T21:53:23.748Z,9.75
2022-12-11T22:04:55.575Z,7.60
2022-12-11T22:10:16.610Z,7.32
2022-12-11T22:15:41.717Z,7.15
2022-12-11T22:21:08.610Z,7.70
2022-12-11T22:26:38.129Z,8.15
2022-12-11T22:31:49.026Z,10.57
2022-12-11T22:37:10.269Z,10.07
2022-12-11T22:42:30.977Z,8.15
2022-12-11T22:47:52.557Z,9.48
2022-12-11T22:53:28.400Z,10.45
2022-12-11T22:58:40.051Z,9.23
2022-12-11T23:03:52.968Z,9.25
2022-12-11T23:09:20.223Z,9.60
2022-12-11T23:20:22.388Z,10.75
2022-12-11T23:25:44.935Z,9.68
2022-12-11T23:30:54.115Z,8.48
